Time;durP1;ratioP1;P1;durP2;ratioP2;P2;SDS_P1;SDS_P2;PMS_P1;PMS_P2;Temp;Humidity;BMP_temperature;BMP_pressure;BME280_temperature;BME280_humidity;BME280_pressure;Samples;Min_cycle;Max_cycle;Signal;HPM_P1;HPM_P2
2023/01/21 00:00:00;;;;;;;20.30;13.18;;;;;;;1.30;78.24;99921.00;421574;23;1042;-87
2023/01/21 00:00:12;;;;;;;20.65;13.15;;;;;;;1.33;77.98;99923.63;421289;23;1155;-87
2023/01/21 00:00:25;;;;;;;19.92;12.90;;;;;;;1.29;78.10;99919.28;422012;23;746;-87
2023/01/21 00:00:37;;;;;;;19.48;12.68;;;;;;;1.32;78.23;99927.84;419213;23;1039;-87
2023/01/21 00:00:49;;;;;;;20.42;12.75;;;;;;;1.35;78.54;99916.81;419775;23;869;-87
2023/01/21 00:01:01;;;;;;;21.40;12.95;;;;;;;1.33;77.97;99921.06;421354;23;1129;-87
2023/01/21 00:01:13;;;;;;;20.45;12.93;;;;;;;1.32;78.41;99924.44;421993;23;700;-88
2023/01/21 00:01:27;;;;;;;20.25;12.95;;;;;;;1.35;77.88;99927.06;419263;23;1141;-88
2023/01/21 00:01:39;;;;;;;20.92;13.02;;;;;;;1.37;78.37;99925.38;419543;23;1085;-87
2023/01/21 00:01:51;;;;;;;22.00;13.43;;;;;;;1.36;78.06;99921.91;419926;23;1469;-87
2023/01/21 00:02:04;;;;;;;21.75;13.50;;;;;;;1.36;77.69;99923.63;419648;23;1194;-87
2023/01/21 00:02:16;;;;;;;20.67;13.05;;;;;;;1.39;77.75;99924.53;420423;23;702;-87
2023/01/21 00:02:28;;;;;;;20.65;13.05;;;;;;;1.40;77.81;99920.25;419963;23;759;-87
2023/01/21 00:02:40;;;;;;;20.70;13.18;;;;;;;1.41;78.06;99927.09;418552;23;679;-87
2023/01/21 00:02:52;;;;;;;21.48;13.00;;;;;;;1.42;77.96;99921.13;418092;23;856;-87
2023/01/21 00:03:04;;;;;;;21.05;13.00;;;;;;;1.41;77.96;99919.41;417711;23;951;-88
2023/01/21 00:03:16;;;;;;;20.60;12.88;;;;;;;1.40;77.75;99926.22;417549;23;982;-88
2023/01/21 00:03:28;;;;;;;19.58;12.55;;;;;;;1.41;77.60;99924.53;416214;23;936;-87
2023/01/21 00:03:40;;;;;;;20.63;12.93;;;;;;;1.44;77.69;99929.69;418637;23;678;-88
2023/01/21 00:03:52;;;;;;;21.27;12.93;;;;;;;1.44;77.29;99929.69;420522;23;721;-87
2023/01/21 00:04:04;;;;;;;20.27;12.60;;;;;;;1.45;77.80;99920.28;422527;23;681;-87
2023/01/21 00:04:16;;;;;;;21.60;12.93;;;;;;;1.39;76.61;99921.13;421587;23;965;-87
2023/01/21 00:04:28;;;;;;;21.80;12.85;;;;;;;1.35;76.45;99927.06;421425;23;1155;-87
2023/01/21 00:04:41;;;;;;;22.00;13.23;;;;;;;1.34;76.91;99922.75;421511;23;969;-88
2023/01/21 00:04:53;;;;;;;21.25;12.80;;;;;;;1.28;76.67;99927.81;424068;23;785;-88
2023/01/21 00:05:05;;;;;;;20.77;12.55;;;;;;;1.32;76.96;99924.44;424203;23;1901;-87
2023/01/21 00:05:17;;;;;;;20.52;12.23;;;;;;;1.33;76.52;99928.75;419611;23;1193;-87
2023/01/21 00:05:29;;;;;;;20.75;12.38;;;;;;;1.34;76.98;99927.88;419747;23;943;-88
2023/01/21 00:05:41;;;;;;;20.52;12.63;;;;;;;1.35;76.55;99925.34;417737;23;1213;-88
2023/01/21 00:05:53;;;;;;;20.20;12.57;;;;;;;1.36;76.82;99926.19;419494;23;951;-88
2023/01/21 00:06:05;;;;;;;20.58;12.70;;;;;;;1.37;77.04;99927.94;418907;23;683;-87
2023/01/21 00:06:17;;;;;;;20.52;12.88;;;;;;;1.36;76.46;99921.06;417598;23;1046;-87
2023/01/21 00:06:29;;;;;;;19.95;12.48;;;;;;;1.28;76.31;99925.25;417805;23;963;-87
2023/01/21 00:06:41;;;;;;;19.63;12.43;;;;;;;1.27;76.80;99931.22;416467;23;683;-87
2023/01/21 00:06:53;;;;;;;19.23;12.48;;;;;;;1.25;76.74;99922.66;419616;23;1078;-88
2023/01/21 00:07:06;;;;;;;19.80;12.25;;;;;;;1.28;76.66;99928.69;421405;23;1152;-87
2023/01/21 00:07:18;;;;;;;20.98;12.65;;;;;;;1.27;76.40;99926.97;421370;23;1124;-87
2023/01/21 00:07:30;;;;;;;20.98;12.45;;;;;;;1.25;76.87;99922.66;422340;23;677;-87
2023/01/21 00:07:42;;;;;;;20.48;12.48;;;;;;;1.25;76.52;99925.22;418689;23;1079;-87
2023/01/21 00:07:54;;;;;;;20.65;11.95;;;;;;;1.18;76.32;99927.72;420517;23;678;-87
2023/01/21 00:08:06;;;;;;;21.55;12.23;;;;;;;1.20;76.43;99927.75;420543;23;678;-87
2023/01/21 00:08:18;;;;;;;20.88;11.85;;;;;;;1.23;76.13;99926.91;421706;23;774;-87
2023/01/21 00:08:30;;;;;;;21.38;11.75;;;;;;;1.24;76.62;99928.63;421139;23;1115;-87
2023/01/21 00:08:42;;;;;;;19.73;11.88;;;;;;;1.25;76.43;99928.66;422612;23;684;-88
2023/01/21 00:08:58;;;;;;;18.73;11.45;;;;;;;1.28;76.57;99932.94;421609;23;1156;-87
2023/01/21 00:09:10;;;;;;;19.98;11.73;;;;;;;1.26;76.45;99925.25;422282;23;800;-87
2023/01/21 00:09:22;;;;;;;20.20;12.00;;;;;;;1.30;76.54;99931.25;422569;23;681;-88
2023/01/21 00:09:34;;;;;;;18.83;11.82;;;;;;;1.30;76.66;99931.25;423494;23;1043;-87
2023/01/21 00:09:46;;;;;;;18.30;11.50;;;;;;;1.32;76.45;99937.25;421776;23;1072;-88
2023/01/21 00:09:58;;;;;;;18.60;11.35;;;;;;;1.31;76.55;99932.97;421506;23;1089;-87
2023/01/21 00:10:10;;;;;;;18.85;11.38;;;;;;;1.31;76.14;99932.97;421704;23;1126;-88
2023/01/21 00:10:22;;;;;;;18.42;11.73;;;;;;;1.32;76.62;99932.13;422548;23;673;-87
2023/01/21 00:10:34;;;;;;;18.40;11.60;;;;;;;1.31;76.67;99933.84;421669;23;1000;-87
2023/01/21 00:10:46;;;;;;;19.58;11.68;;;;;;;1.22;76.42;99932.88;422539;23;674;-87
2023/01/21 00:11:09;;;;;;;19.30;11.52;;;;;;;1.14;76.31;99931.09;419265;23;1100;-87
2023/01/21 00:11:21;;;;;;;19.63;12.02;;;;;;;1.12;76.38;99932.78;421762;23;836;-87
2023/01/21 00:11:33;;;;;;;19.75;11.95;;;;;;;1.13;76.82;99926.00;418640;23;686;-87
2023/01/21 00:11:48;;;;;;;19.52;11.63;;;;;;;1.15;76.86;99934.53;416349;23;1407;-87
2023/01/21 00:12:03;;;;;;;19.55;11.85;;;;;;;1.15;76.66;99937.94;415826;23;994;-87
2023/01/21 00:12:14;;;;;;;19.65;12.05;;;;;;;1.18;76.61;99934.56;416602;23;776;-87
2023/01/21 00:12:26;;;;;;;18.87;11.83;;;;;;;1.20;76.95;99932.88;414603;23;697;-87
2023/01/21 00:12:38;;;;;;;18.63;11.85;;;;;;;1.20;76.47;99935.44;415853;23;840;-87
2023/01/21 00:12:50;;;;;;;18.23;11.77;;;;;;;1.24;76.53;99931.19;418890;23;1168;-87
2023/01/21 00:13:02;;;;;;;18.13;11.48;;;;;;;1.23;76.87;99934.59;419872;23;786;-86
2023/01/21 00:13:15;;;;;;;18.02;11.40;;;;;;;1.24;76.37;99931.19;420655;23;1032;-87
2023/01/21 00:13:27;;;;;;;18.35;11.45;;;;;;;1.27;76.67;99933.78;417275;23;1011;-88
2023/01/21 00:13:40;;;;;;;19.02;11.50;;;;;;;1.27;76.49;99929.53;417809;23;881;-87
2023/01/21 00:13:52;;;;;;;19.92;11.77;;;;;;;1.26;76.39;99934.63;419321;23;1060;-87
2023/01/21 00:14:04;;;;;;;19.70;11.75;;;;;;;1.25;76.43;99935.47;417671;23;884;-87
2023/01/21 00:14:16;;;;;;;20.05;11.68;;;;;;;1.28;76.83;99932.94;413550;23;1193;-87
2023/01/21 00:14:29;;;;;;;19.55;11.68;;;;;;;1.26;76.38;99935.50;413832;23;983;-87
2023/01/21 00:14:41;;;;;;;18.40;11.50;;;;;;;1.28;76.53;99938.91;417684;23;936;-87
2023/01/21 00:14:52;;;;;;;18.98;11.55;;;;;;;1.28;76.76;99943.19;417789;23;832;-87
2023/01/21 00:15:05;;;;;;;19.50;11.55;;;;;;;1.19;76.72;99933.72;417983;23;1048;-88
2023/01/21 00:15:17;;;;;;;19.08;11.55;;;;;;;1.24;76.88;99941.44;420419;23;712;-87
2023/01/21 00:15:29;;;;;;;19.10;11.60;;;;;;;1.24;76.63;99936.31;417704;23;1166;-87
2023/01/21 00:15:41;;;;;;;20.30;11.68;;;;;;;1.24;76.95;99936.31;419499;23;1058;-87
2023/01/21 00:15:53;;;;;;;21.10;11.70;;;;;;;1.23;76.69;99934.59;418610;23;1215;-87
2023/01/21 00:16:06;;;;;;;20.45;11.73;;;;;;;1.22;76.64;99941.41;419456;23;1070;-88
2023/01/21 00:16:18;;;;;;;21.13;12.10;;;;;;;1.25;76.70;99938.03;419284;23;949;-89
2023/01/21 00:16:30;;;;;;;21.27;12.07;;;;;;;1.24;76.49;99933.75;417166;23;1060;-88
2023/01/21 00:16:42;;;;;;;20.48;11.82;;;;;;;1.26;76.58;99939.75;417835;23;1320;-88
2023/01/21 00:16:54;;;;;;;17.55;11.10;;;;;;;1.28;76.30;99938.06;417753;23;963;-89
2023/01/21 00:17:06;;;;;;;17.95;11.63;;;;;;;1.27;76.69;99937.22;418512;23;687;-87
2023/01/21 00:17:18;;;;;;;18.40;11.68;;;;;;;1.26;76.54;99937.19;421067;23;1009;-87
2023/01/21 00:17:34;;;;;;;18.42;11.57;;;;;;;1.26;76.73;99934.63;420771;23;1146;-87
2023/01/21 00:17:51;;;;;;;18.02;11.13;;;;;;;1.25;76.66;99938.91;419777;23;1038;-89
2023/01/21 00:18:03;;;;;;;19.23;11.07;;;;;;;1.26;76.48;99937.19;420910;23;1022;-88
2023/01/21 00:18:15;;;;;;;18.45;11.15;;;;;;;1.27;76.55;99941.47;418924;23;1167;-88
2023/01/21 00:18:27;;;;;;;18.02;11.13;;;;;;;1.27;76.65;99939.78;420618;23;690;-88
2023/01/21 00:18:41;;;;;;;17.75;10.98;;;;;;;1.27;76.14;99947.47;419314;23;1161;-87
2023/01/21 00:18:55;;;;;;;18.75;11.23;;;;;;;1.29;76.16;99939.78;419771;23;953;-88
2023/01/21 00:19:07;;;;;;;20.10;11.20;;;;;;;1.29;76.36;99937.22;415659;23;972;-88
2023/01/21 00:19:19;;;;;;;18.95;10.98;;;;;;;1.29;76.60;99942.34;417386;23;1143;-88
2023/01/21 00:19:31;;;;;;;19.27;11.00;;;;;;;1.31;76.26;99940.66;417227;23;1227;-87
2023/01/21 00:19:43;;;;;;;18.88;11.10;;;;;;;1.31;76.37;99938.09;417665;23;1211;-88
2023/01/21 00:19:55;;;;;;;17.17;11.07;;;;;;;1.31;76.36;99936.41;417400;23;1243;-88
2023/01/21 00:20:08;;;;;;;16.50;10.82;;;;;;;1.32;76.47;99939.81;417605;23;1099;-88
2023/01/21 00:20:20;;;;;;;17.42;11.18;;;;;;;1.32;76.37;99942.38;419947;23;924;-88
2023/01/21 00:20:32;;;;;;;17.98;11.05;;;;;;;1.33;76.39;99937.28;419213;23;1043;-88
2023/01/21 00:20:44;;;;;;;19.65;11.07;;;;;;;1.34;76.42;99938.13;419931;23;833;-87
2023/01/21 00:20:56;;;;;;;20.90;11.23;;;;;;;1.34;75.92;99940.69;417692;23;1042;-87
2023/01/21 00:21:08;;;;;;;20.52;11.38;;;;;;;1.31;76.02;99940.66;417957;23;944;-87
2023/01/21 00:21:21;;;;;;;18.92;11.05;;;;;;;1.30;76.00;99938.94;413755;23;967;-88
2023/01/21 00:21:33;;;;;;;19.35;11.30;;;;;;;1.31;76.21;99938.97;414035;23;843;-87
2023/01/21 00:21:45;;;;;;;20.15;11.75;;;;;;;1.28;75.80;99935.50;414159;23;1422;-87
2023/01/21 00:21:57;;;;;;;20.13;11.82;;;;;;;1.29;75.95;99934.66;418020;23;814;-87
2023/01/21 00:22:09;;;;;;;19.00;11.35;;;;;;;1.27;76.41;99936.34;420520;23;678;-87
2023/01/21 00:22:21;;;;;;;17.70;10.80;;;;;;;1.26;76.29;99940.59;417509;23;1082;-88
2023/01/21 00:22:33;;;;;;;19.08;10.90;;;;;;;1.29;75.93;99939.78;418535;23;683;-87
2023/01/21 00:22:45;;;;;;;19.63;11.40;;;;;;;1.26;75.96;99935.50;419556;23;1128;-87
2023/01/21 00:22:57;;;;;;;20.63;11.43;;;;;;;1.27;75.63;99941.47;421301;23;760;-87
2023/01/21 00:23:09;;;;;;;19.83;10.77;;;;;;;1.26;75.55;99943.16;419323;23;1060;-88
2023/01/21 00:23:21;;;;;;;19.90;10.40;;;;;;;1.26;75.51;99947.44;417548;23;1260;-87
2023/01/21 00:23:33;;;;;;;19.38;10.77;;;;;;;1.28;75.64;99940.63;420494;23;690;-88
2023/01/21 00:23:45;;;;;;;19.63;10.90;;;;;;;1.27;75.72;99944.03;421493;23;1234;-87
2023/01/21 00:23:57;;;;;;;18.55;10.85;;;;;;;1.25;75.34;99938.03;421696;23;960;-87
2023/01/21 00:24:09;;;;;;;18.90;11.10;;;;;;;1.25;75.85;99944.03;419607;23;1228;-87
2023/01/21 00:24:23;;;;;;;19.80;11.20;;;;;;;1.26;75.40;99944.88;417601;23;920;-87
2023/01/21 00:24:35;;;;;;;19.08;10.95;;;;;;;1.26;75.87;99935.50;419700;23;979;-87
2023/01/21 00:24:47;;;;;;;18.45;11.02;;;;;;;1.25;75.53;99943.16;416942;23;1078;-87
2023/01/21 00:24:59;;;;;;;18.50;11.00;;;;;;;1.26;75.67;99943.16;418494;23;713;-87
2023/01/21 00:25:11;;;;;;;17.20;10.63;;;;;;;1.27;76.01;99946.59;418492;23;686;-87
2023/01/21 00:25:23;;;;;;;16.25;10.30;;;;;;;1.26;75.73;99940.59;419499;23;1034;-86
2023/01/21 00:25:34;;;;;;;15.73;10.35;;;;;;;1.28;75.65;99943.19;419105;23;1152;-87
2023/01/21 00:25:46;;;;;;;17.58;10.93;;;;;;;1.27;75.55;99946.59;419225;23;1027;-88
2023/01/21 00:26:00;;;;;;;18.42;11.00;;;;;;;1.26;75.58;99940.59;421361;23;1175;-87
2023/01/21 00:26:12;;;;;;;17.92;10.77;;;;;;;1.28;75.64;99948.31;423677;23;1118;-88
2023/01/21 00:26:24;;;;;;;19.00;10.80;;;;;;;1.27;75.55;99942.34;424550;23;697;-88
2023/01/21 00:26:36;;;;;;;20.48;11.02;;;;;;;1.28;75.82;99944.03;419610;23;955;-87
2023/01/21 00:26:48;;;;;;;20.50;11.18;;;;;;;1.27;75.98;99942.34;421980;23;844;-87
2023/01/21 00:27:00;;;;;;;19.85;11.07;;;;;;;1.27;75.97;99941.47;419288;23;1897;-87
2023/01/21 00:27:12;;;;;;;17.58;10.68;;;;;;;1.26;76.03;99944.88;417322;23;1108;-87
2023/01/21 00:27:24;;;;;;;16.95;10.45;;;;;;;1.27;75.50;99941.47;420159;23;681;-87
2023/01/21 00:27:36;;;;;;;17.25;10.80;;;;;;;1.27;75.84;99946.59;417736;23;1108;-87
2023/01/21 00:27:48;;;;;;;18.13;11.07;;;;;;;1.24;75.68;99939.72;417651;23;965;-87
2023/01/21 00:28:00;;;;;;;18.70;11.35;;;;;;;1.25;75.86;99943.16;413712;23;925;-88
2023/01/21 00:28:12;;;;;;;18.52;11.38;;;;;;;1.26;75.56;99942.31;414658;23;668;-87
2023/01/21 00:28:27;;;;;;;17.58;11.20;;;;;;;1.26;76.09;99942.31;413831;23;967;-87
2023/01/21 00:28:43;;;;;;;17.55;11.30;;;;;;;1.28;75.84;99945.75;415830;23;1188;-87
2023/01/21 00:28:55;;;;;;;17.95;11.57;;;;;;;1.27;75.79;99942.34;415237;23;1052;-87
2023/01/21 00:29:07;;;;;;;17.80;11.45;;;;;;;1.29;75.42;99945.78;419716;23;1142;-87
2023/01/21 00:29:20;;;;;;;18.17;11.37;;;;;;;1.29;75.70;99947.44;420439;23;723;-87
2023/01/21 00:29:32;;;;;;;17.23;10.68;;;;;;;1.26;76.01;99945.72;421373;23;1118;-87
2023/01/21 00:29:44;;;;;;;16.35;10.80;;;;;;;1.24;75.88;99941.44;422601;23;682;-87
2023/01/21 00:29:56;;;;;;;15.60;10.82;;;;;;;1.25;76.04;99944.03;419703;23;1071;-87
2023/01/21 00:30:09;;;;;;;16.63;11.23;;;;;;;1.27;76.07;99938.91;419253;23;1201;-87
2023/01/21 00:30:21;;;;;;;18.10;11.43;;;;;;;1.27;76.33;99946.59;421700;23;967;-87
2023/01/21 00:30:34;;;;;;;19.08;11.45;;;;;;;1.25;75.70;99945.72;420551;23;686;-88
2023/01/21 00:30:46;;;;;;;18.77;11.38;;;;;;;1.25;76.28;99948.25;420497;23;705;-88
2023/01/21 00:31:00;;;;;;;18.35;11.38;;;;;;;1.24;76.17;99946.56;422615;23;692;-87
2023/01/21 00:31:12;;;;;;;18.15;11.10;;;;;;;1.26;75.88;99945.72;421886;23;857;-87
2023/01/21 00:31:25;;;;;;;17.27;10.57;;;;;;;1.25;75.72;99948.25;420477;23;687;-87
2023/01/21 00:31:37;;;;;;;16.55;10.75;;;;;;;1.25;76.23;99949.16;421028;23;841;-87
2023/01/21 00:31:49;;;;;;;19.05;10.93;;;;;;;1.27;75.91;99951.69;422090;23;1469;-87
2023/01/21 00:32:01;;;;;;;21.02;11.52;;;;;;;1.27;76.17;99947.47;422603;23;698;-87
2023/01/21 00:32:14;;;;;;;20.80;11.38;;;;;;;1.23;76.06;99944.84;422076;23;869;-87
2023/01/21 00:32:25;;;;;;;17.23;11.05;;;;;;;1.24;75.62;99942.28;420698;23;690;-87
2023/01/21 00:32:37;;;;;;;17.52;11.13;;;;;;;1.23;76.12;99949.97;418813;23;898;-86
2023/01/21 00:32:51;;;;;;;19.65;11.35;;;;;;;1.23;76.18;99949.97;420727;23;964;-85
2023/01/21 00:33:03;;;;;;;19.50;11.45;;;;;;;1.23;76.16;99949.97;418882;23;844;-85
2023/01/21 00:33:15;;;;;;;18.85;11.57;;;;;;;1.20;75.90;99946.53;422489;23;1165;-86
2023/01/21 00:33:28;;;;;;;18.33;11.77;;;;;;;1.23;76.24;99952.50;420202;23;1023;-88
2023/01/21 00:33:40;;;;;;;19.88;11.77;;;;;;;1.23;76.31;99944.84;420743;23;694;-88
2023/01/21 00:33:52;;;;;;;19.13;11.75;;;;;;;1.25;76.29;99948.25;415457;23;1067;-88
2023/01/21 00:34:04;;;;;;;19.10;11.80;;;;;;;1.24;75.94;99951.69;418817;23;691;-87
2023/01/21 00:34:16;;;;;;;18.63;11.38;;;;;;;1.24;76.03;99946.56;419318;23;1065;-88
2023/01/21 00:34:28;;;;;;;19.70;11.38;;;;;;;1.20;76.11;99946.53;422597;23;699;-87
2023/01/21 00:34:40;;;;;;;20.23;11.50;;;;;;;1.25;76.38;99945.72;420687;23;712;-88
2023/01/21 00:34:53;;;;;;;21.67;11.63;;;;;;;1.20;76.29;99950.78;419510;23;1075;-88
2023/01/21 00:35:06;;;;;;;20.77;11.57;;;;;;;1.20;76.48;99949.09;417330;23;1006;-87
2023/01/21 00:35:18;;;;;;;19.63;11.38;;;;;;;1.18;76.49;99948.22;416643;23;733;-87
2023/01/21 00:35:30;;;;;;;17.63;11.00;;;;;;;1.18;76.67;99948.22;418017;23;959;-88
2023/01/21 00:35:42;;;;;;;17.15;11.10;;;;;;;1.19;76.85;99947.38;417937;23;861;-87
2023/01/21 00:36:03;;;;;;;18.13;11.38;;;;;;;1.20;76.29;99951.63;418111;23;983;-87
2023/01/21 00:36:17;;;;;;;19.10;11.55;;;;;;;1.20;76.76;99946.53;420500;23;807;-87
2023/01/21 00:36:29;;;;;;;18.35;11.32;;;;;;;1.21;76.79;99949.97;418465;23;758;-88
2023/01/21 00:36:41;;;;;;;19.20;11.68;;;;;;;1.22;76.57;99954.22;420437;23;709;-88
2023/01/21 00:36:53;;;;;;;20.10;11.80;;;;;;;1.22;76.18;99956.78;420804;23;692;-88
2023/01/21 00:37:07;;;;;;;19.92;11.90;;;;;;;1.20;76.27;99943.09;420755;23;822;-88
2023/01/21 00:37:19;;;;;;;19.02;11.93;;;;;;;1.20;76.48;99949.09;422730;23;681;-87
2023/01/21 00:37:31;;;;;;;19.55;12.05;;;;;;;1.20;76.75;99943.97;423888;23;690;-87
2023/01/21 00:37:43;;;;;;;19.42;11.75;;;;;;;1.20;76.61;99956.75;423804;23;888;-87
2023/01/21 00:37:55;;;;;;;20.63;12.07;;;;;;;1.22;76.75;99954.22;423135;23;1036;-87
2023/01/21 00:38:07;;;;;;;19.58;11.68;;;;;;;1.20;76.58;99950.78;424618;23;684;-88
2023/01/21 00:38:19;;;;;;;18.23;11.65;;;;;;;1.19;76.49;99952.50;424599;23;668;-87
2023/01/21 00:38:31;;;;;;;18.02;11.57;;;;;;;1.21;76.96;99957.66;423883;23;650;-87
2023/01/21 00:38:46;;;;;;;18.67;11.48;;;;;;;1.24;76.63;99951.69;421429;23;713;-87
2023/01/21 00:38:58;;;;;;;20.38;11.77;;;;;;;1.24;76.53;99957.66;419378;23;1075;-88
2023/01/21 00:39:11;;;;;;;19.48;11.70;;;;;;;1.24;76.50;99961.94;419682;23;860;-88
2023/01/21 00:39:23;;;;;;;18.98;11.85;;;;;;;1.23;76.60;99949.97;421760;23;840;-88
2023/01/21 00:39:35;;;;;;;18.33;11.48;;;;;;;1.24;76.99;99951.69;421651;23;956;-87
2023/01/21 00:39:47;;;;;;;18.88;11.57;;;;;;;1.24;76.40;99951.69;421065;23;859;-86
2023/01/21 00:39:58;;;;;;;19.38;11.65;;;;;;;1.23;76.86;99952.50;419212;23;694;-87
2023/01/21 00:40:11;;;;;;;19.33;11.68;;;;;;;1.23;76.38;99949.97;415985;23;1114;-87
2023/01/21 00:40:23;;;;;;;20.65;12.13;;;;;;;1.23;76.55;99955.06;416235;23;945;-88
2023/01/21 00:40:35;;;;;;;19.58;11.98;;;;;;;1.20;77.26;99956.75;414430;23;799;-87
2023/01/21 00:40:47;;;;;;;19.48;11.85;;;;;;;1.19;77.10;99949.94;417264;23;692;-88
2023/01/21 00:41:01;;;;;;;18.38;11.57;;;;;;;1.22;77.48;99951.66;417172;23;698;-88
2023/01/21 00:41:13;;;;;;;18.17;11.10;;;;;;;1.23;77.11;99955.06;417430;23;758;-87
2023/01/21 00:41:26;;;;;;;18.75;10.93;;;;;;;1.10;77.33;99949.84;416401;23;784;-87
2023/01/21 00:41:38;;;;;;;20.10;11.43;;;;;;;1.09;77.46;99953.25;417848;23;851;-87
2023/01/21 00:41:50;;;;;;;19.73;12.00;;;;;;;1.10;77.37;99952.41;417599;23;1342;-88
2023/01/21 00:42:03;;;;;;;19.45;11.88;;;;;;;1.12;77.45;99955.81;417705;23;999;-87
2023/01/21 00:42:15;;;;;;;17.98;11.25;;;;;;;1.13;77.50;99952.44;417610;23;1178;-89
2023/01/21 00:42:27;;;;;;;18.42;11.52;;;;;;;1.15;77.34;99955.88;417436;23;1059;-88
2023/01/21 00:42:39;;;;;;;18.27;11.57;;;;;;;1.16;77.02;99954.16;419671;23;1134;-88
2023/01/21 00:42:51;;;;;;;18.73;11.75;;;;;;;1.18;77.56;99953.34;418074;23;1181;-89
2023/01/21 00:43:03;;;;;;;18.85;11.65;;;;;;;1.20;77.48;99950.78;417616;23;1038;-86
2023/01/21 00:43:15;;;;;;;20.55;11.90;;;;;;;1.19;77.06;99949.94;419496;23;1088;-85
2023/01/21 00:43:27;;;;;;;21.40;11.82;;;;;;;1.18;77.19;99953.34;419228;23;1184;-85
2023/01/21 00:43:40;;;;;;;21.45;11.82;;;;;;;1.17;77.75;99951.63;421602;23;1191;-86
2023/01/21 00:43:52;;;;;;;21.63;11.77;;;;;;;1.16;77.45;99954.16;422379;23;742;-86
2023/01/21 00:44:04;;;;;;;19.90;11.75;;;;;;;1.16;77.32;99955.00;420053;23;694;-88
2023/01/21 00:44:18;;;;;;;18.92;11.70;;;;;;;1.18;77.08;99958.44;419360;23;1074;-88
2023/01/21 00:44:30;;;;;;;19.80;11.80;;;;;;;1.18;77.64;99950.78;421609;23;938;-88
2023/01/21 00:44:42;;;;;;;20.30;11.93;;;;;;;1.19;77.56;99956.78;419342;23;1078;-87
2023/01/21 00:44:56;;;;;;;20.05;11.73;;;;;;;1.20;77.58;99956.75;419305;23;1200;-88
2023/01/21 00:45:08;;;;;;;18.77;11.50;;;;;;;1.21;77.55;99955.09;417871;23;996;-88
2023/01/21 00:45:20;;;;;;;18.25;11.80;;;;;;;1.20;77.16;99954.19;416531;23;722;-86
2023/01/21 00:45:32;;;;;;;19.15;11.95;;;;;;;1.17;77.20;99954.19;416560;23;695;-85
2023/01/21 00:45:44;;;;;;;18.90;12.15;;;;;;;1.17;77.49;99956.75;415673;23;1106;-85
2023/01/21 00:45:57;;;;;;;18.23;11.82;;;;;;;1.17;77.04;99953.34;416572;23;679;-85
2023/01/21 00:46:10;;;;;;;18.42;11.30;;;;;;;1.19;77.68;99949.09;415628;23;1093;-85
2023/01/21 00:46:22;;;;;;;18.88;11.40;;;;;;;1.20;77.56;99959.31;417424;23;1203;-86
2023/01/21 00:46:34;;;;;;;18.48;11.65;;;;;;;1.21;77.48;99957.66;417847;23;1087;-86
2023/01/21 00:46:46;;;;;;;18.58;11.95;;;;;;;1.21;77.12;99949.97;418403;23;683;-88
2023/01/21 00:46:58;;;;;;;20.42;12.30;;;;;;;1.24;77.42;99956.81;421360;23;1075;-88
2023/01/21 00:47:10;;;;;;;22.02;12.60;;;;;;;1.23;77.37;99961.09;419679;23;853;-88
2023/01/21 00:47:23;;;;;;;22.00;12.32;;;;;;;1.19;76.81;99952.50;420193;23;681;-89
2023/01/21 00:47:35;;;;;;;20.92;12.05;;;;;;;1.19;77.44;99955.06;417998;23;786;-88
2023/01/21 00:47:47;;;;;;;21.17;11.73;;;;;;;1.20;77.19;99949.09;418539;23;697;-88
2023/01/21 00:47:59;;;;;;;21.00;11.65;;;;;;;1.19;77.17;99952.50;421712;23;1089;-88
2023/01/21 00:48:11;;;;;;;19.95;11.77;;;;;;;1.17;77.34;99951.63;423915;23;955;-89
2023/01/21 00:48:23;;;;;;;19.40;12.15;;;;;;;1.18;77.00;99953.34;422465;23;1120;-87
2023/01/21 00:48:36;;;;;;;19.30;12.32;;;;;;;1.18;77.48;99958.44;421789;23;1135;-87
2023/01/21 00:48:48;;;;;;;19.08;12.07;;;;;;;1.17;77.12;99956.75;418495;23;1934;-85
2023/01/21 00:49:00;;;;;;;19.83;12.27;;;;;;;1.15;77.10;99952.47;417476;23;1193;-86
2023/01/21 00:49:12;;;;;;;20.95;12.32;;;;;;;1.14;77.33;99956.69;419274;23;1203;-86
2023/01/21 00:49:24;;;;;;;22.05;12.00;;;;;;;1.16;77.48;99955.00;417981;23;888;-85
2023/01/21 00:49:36;;;;;;;21.98;12.02;;;;;;;1.16;77.40;99960.13;415751;23;1046;-88
2023/01/21 00:49:48;;;;;;;18.75;11.80;;;;;;;1.17;77.56;99955.91;415790;23;1185;-88
2023/01/21 00:50:00;;;;;;;20.52;11.45;;;;;;;1.17;77.58;99954.19;415609;23;1213;-88
2023/01/21 00:50:12;;;;;;;20.60;11.73;;;;;;;1.18;76.77;99963.56;417713;23;955;-88
2023/01/21 00:50:24;;;;;;;21.20;11.82;;;;;;;1.19;77.46;99960.19;417986;23;754;-88
2023/01/21 00:50:36;;;;;;;19.88;12.07;;;;;;;1.20;77.45;99961.03;417828;23;1187;-88
2023/01/21 00:50:50;;;;;;;20.17;12.00;;;;;;;1.19;77.67;99965.31;418525;23;686;-88
2023/01/21 00:51:02;;;;;;;20.73;12.27;;;;;;;1.15;77.39;99955.88;417852;23;845;-88
2023/01/21 00:51:14;;;;;;;20.20;12.13;;;;;;;1.14;77.63;99951.59;416064;23;1188;-86
2023/01/21 00:51:26;;;;;;;19.23;12.13;;;;;;;1.13;77.52;99955.00;416390;23;948;-86
2023/01/21 00:51:41;;;;;;;19.25;12.00;;;;;;;1.14;77.56;99961.81;415832;23;1149;-85
2023/01/21 00:51:53;;;;;;;19.10;11.57;;;;;;;1.15;77.45;99963.56;417792;23;1311;-85
2023/01/21 00:52:05;;;;;;;19.50;11.73;;;;;;;1.13;77.77;99960.13;418125;23;770;-86
2023/01/21 00:52:17;;;;;;;18.50;11.77;;;;;;;1.13;77.87;99962.69;417627;23;1069;-88
2023/01/21 00:52:29;;;;;;;17.20;11.43;;;;;;;1.13;77.65;99965.25;420526;23;694;-88
2023/01/21 00:52:41;;;;;;;17.98;11.48;;;;;;;1.13;77.30;99957.56;419983;23;859;-88
2023/01/21 00:52:53;;;;;;;18.92;11.80;;;;;;;1.12;78.24;99958.38;417580;23;1096;-88
2023/01/21 00:53:05;;;;;;;18.67;11.77;;;;;;;1.14;77.73;99956.69;420514;23;720;-88
2023/01/21 00:53:17;;;;;;;18.40;11.85;;;;;;;1.13;77.83;99957.56;417727;23;947;-88
2023/01/21 00:53:32;;;;;;;20.23;12.50;;;;;;;1.12;77.71;99960.09;418170;23;1010;-88
2023/01/21 00:53:44;;;;;;;20.30;12.38;;;;;;;1.10;78.07;99954.94;419990;23;758;-88
2023/01/21 00:53:56;;;;;;;19.80;11.98;;;;;;;1.11;77.91;99960.97;419629;23;1025;-88
2023/01/21 00:54:08;;;;;;;18.30;11.52;;;;;;;1.11;77.93;99959.25;420542;23;682;-86
2023/01/21 00:54:20;;;;;;;18.85;11.43;;;;;;;1.13;77.55;99962.69;420483;23;690;-86
2023/01/21 00:54:32;;;;;;;18.60;11.50;;;;;;;1.10;77.92;99954.94;417620;23;1029;-85
2023/01/21 00:54:44;;;;;;;19.70;11.90;;;;;;;1.03;78.14;99957.44;417798;23;1072;-86
2023/01/21 00:54:56;;;;;;;19.65;12.30;;;;;;;1.06;78.21;99960.88;419702;23;878;-85
2023/01/21 00:55:08;;;;;;;19.33;12.20;;;;;;;1.05;78.22;99960.84;417685;23;876;-88
2023/01/21 00:55:20;;;;;;;20.27;12.02;;;;;;;1.05;77.92;99961.75;418570;23;690;-88
2023/01/21 00:55:32;;;;;;;19.85;11.88;;;;;;;1.02;78.38;99964.25;418894;23;899;-88
2023/01/21 00:55:44;;;;;;;18.75;11.77;;;;;;;1.03;78.29;99963.44;420581;23;695;-88
2023/01/21 00:56:04;;;;;;;18.23;11.68;;;;;;;1.03;77.59;99966.00;419629;23;954;-88
2023/01/21 00:56:17;;;;;;;18.02;11.52;;;;;;;1.04;77.83;99962.56;419586;23;1043;-87
2023/01/21 00:56:29;;;;;;;20.13;11.85;;;;;;;1.03;77.95;99963.44;419611;23;965;-88
2023/01/21 00:56:41;;;;;;;20.58;11.90;;;;;;;1.03;78.05;99963.44;417700;23;863;-86
2023/01/21 00:56:53;;;;;;;19.20;11.95;;;;;;;1.05;78.02;99965.97;419290;23;1053;-86
2023/01/21 00:57:05;;;;;;;18.58;11.60;;;;;;;1.04;78.05;99957.44;421708;23;959;-86
2023/01/21 00:57:17;;;;;;;18.67;11.23;;;;;;;1.02;77.98;99966.81;420086;23;833;-86
2023/01/21 00:57:29;;;;;;;19.98;11.40;;;;;;;0.99;78.14;99961.69;418123;23;686;-85
2023/01/21 00:57:41;;;;;;;20.50;11.60;;;;;;;1.00;78.43;99964.22;421724;23;872;-86
2023/01/21 00:57:55;;;;;;;19.42;11.35;;;;;;;1.02;78.38;99969.38;421455;23;889;-87
2023/01/21 00:58:07;;;;;;;18.42;11.15;;;;;;;1.03;78.22;99963.44;420110;23;847;-88
2023/01/21 00:58:19;;;;;;;19.08;11.57;;;;;;;1.02;78.35;99964.25;419258;23;1141;-88
2023/01/21 00:58:31;;;;;;;18.40;11.75;;;;;;;1.00;78.23;99963.38;419363;23;1199;-88
2023/01/21 00:58:43;;;;;;;17.48;11.57;;;;;;;1.03;78.33;99967.66;419048;23;1153;-88
2023/01/21 00:58:56;;;;;;;18.98;11.30;;;;;;;1.00;78.42;99965.94;417991;23;880;-89
2023/01/21 00:59:08;;;;;;;19.45;11.40;;;;;;;1.00;78.29;99968.50;417368;23;1155;-88
2023/01/21 00:59:20;;;;;;;20.10;11.63;;;;;;;1.00;78.20;99973.63;418485;23;680;-88